sensor_id;sensor_type;location;lat;lon;timestamp;temperature;humidity
31687;DHT22;18285;51.330;4.946;2023-08-06T00:22:10;23.00;54.80
31687;DHT22;18285;51.330;4.946;2023-08-06T00:46:21;23.00;54.70
31687;DHT22;18285;51.330;4.946;2023-08-06T01:35:04;23.00;54.70
31687;DHT22;18285;51.330;4.946;2023-08-06T01:59:15;23.00;54.70
31687;DHT22;18285;51.330;4.946;2023-08-06T02:23:26;23.00;55.00
31687;DHT22;18285;51.330;4.946;2023-08-06T02:47:36;22.90;55.00
31687;DHT22;18285;51.330;4.946;2023-08-06T03:11:47;22.90;55.10
31687;DHT22;18285;51.330;4.946;2023-08-06T03:35:58;23.00;55.00
31687;DHT22;18285;51.330;4.946;2023-08-06T04:00:09;22.90;55.00
31687;DHT22;18285;51.330;4.946;2023-08-06T04:24:19;22.90;55.00
31687;DHT22;18285;51.330;4.946;2023-08-06T04:48:30;23.00;54.80
31687;DHT22;18285;51.330;4.946;2023-08-06T05:12:41;23.00;54.90
31687;DHT22;18285;51.330;4.946;2023-08-06T05:36:51;23.10;54.70
31687;DHT22;18285;51.330;4.946;2023-08-06T06:01:03;23.10;54.80
31687;DHT22;18285;51.330;4.946;2023-08-06T06:25:13;23.00;54.60
31687;DHT22;18285;51.330;4.946;2023-08-06T06:49:24;23.00;54.30
31687;DHT22;18285;51.330;4.946;2023-08-06T07:13:35;23.00;55.10
31687;DHT22;18285;51.330;4.946;2023-08-06T07:37:46;23.00;54.60
31687;DHT22;18285;51.330;4.946;2023-08-06T08:01:56;22.90;54.70
31687;DHT22;18285;51.330;4.946;2023-08-06T08:26:07;23.10;54.50
31687;DHT22;18285;51.330;4.946;2023-08-06T08:50:18;23.10;54.40
31687;DHT22;18285;51.330;4.946;2023-08-06T09:14:30;23.00;54.60
31687;DHT22;18285;51.330;4.946;2023-08-06T09:38:41;23.10;54.50
31687;DHT22;18285;51.330;4.946;2023-08-06T10:02:53;23.10;54.70
31687;DHT22;18285;51.330;4.946;2023-08-06T10:27:06;23.10;54.90
31687;DHT22;18285;51.330;4.946;2023-08-06T10:51:17;23.10;55.40
31687;DHT22;18285;51.330;4.946;2023-08-06T11:15:29;23.00;55.50
31687;DHT22;18285;51.330;4.946;2023-08-06T11:39:44;23.10;54.80
31687;DHT22;18285;51.330;4.946;2023-08-06T12:03:59;23.10;54.60
31687;DHT22;18285;51.330;4.946;2023-08-06T12:28:10;23.00;54.90
31687;DHT22;18285;51.330;4.946;2023-08-06T12:52:22;23.00;55.30
31687;DHT22;18285;51.330;4.946;2023-08-06T13:16:33;23.10;55.30
31687;DHT22;18285;51.330;4.946;2023-08-06T13:40:44;23.10;55.20
31687;DHT22;18285;51.330;4.946;2023-08-06T14:04:56;23.10;55.60
31687;DHT22;18285;51.330;4.946;2023-08-06T14:29:07;23.10;56.50
31687;DHT22;18285;51.330;4.946;2023-08-06T14:53:18;23.10;55.70
31687;DHT22;18285;51.330;4.946;2023-08-06T15:17:28;23.20;55.90
31687;DHT22;18285;51.330;4.946;2023-08-06T15:41:39;23.10;55.60
31687;DHT22;18285;51.330;4.946;2023-08-06T16:05:50;23.10;55.40
31687;DHT22;18285;51.330;4.946;2023-08-06T16:30:01;23.00;54.50
31687;DHT22;18285;51.330;4.946;2023-08-06T16:54:11;23.00;55.30
31687;DHT22;18285;51.330;4.946;2023-08-06T17:18:22;23.20;55.60
31687;DHT22;18285;51.330;4.946;2023-08-06T17:42:33;23.10;55.80
31687;DHT22;18285;51.330;4.946;2023-08-06T18:06:43;23.20;55.70
31687;DHT22;18285;51.330;4.946;2023-08-06T18:30:54;23.20;55.50
31687;DHT22;18285;51.330;4.946;2023-08-06T18:55:05;23.20;55.10
31687;DHT22;18285;51.330;4.946;2023-08-06T19:19:16;23.20;54.50
31687;DHT22;18285;51.330;4.946;2023-08-06T19:43:26;23.10;53.90
31687;DHT22;18285;51.330;4.946;2023-08-06T20:07:39;23.20;53.60
31687;DHT22;18285;51.330;4.946;2023-08-06T20:31:49;23.10;53.80
31687;DHT22;18285;51.330;4.946;2023-08-06T20:56:01;23.20;53.40
31687;DHT22;18285;51.330;4.946;2023-08-06T21:20:12;23.10;53.10
31687;DHT22;18285;51.330;4.946;2023-08-06T21:44:23;23.10;53.20
31687;DHT22;18285;51.330;4.946;2023-08-06T22:08:34;23.10;53.10
31687;DHT22;18285;51.330;4.946;2023-08-06T22:32:45;23.10;53.10
31687;DHT22;18285;51.330;4.946;2023-08-06T22:56:56;23.10;53.00
31687;DHT22;18285;51.330;4.946;2023-08-06T23:21:07;23.10;53.10
31687;DHT22;18285;51.330;4.946;2023-08-06T23:45:18;23.20;52.80
